createdAt,value
2023-01-17T00:00:40.331Z,98226.22
2023-01-17T00:03:12.335Z,98233.94
2023-01-17T00:06:03.047Z,98235.63
2023-01-17T00:08:53.736Z,98238.97
2023-01-17T00:11:25.703Z,98238.13
2023-01-17T00:13:57.693Z,98244.25
2023-01-17T00:16:29.650Z,98252.88
2023-01-17T00:19:24.620Z,98249.38
2023-01-17T00:22:14.959Z,98259.81
2023-01-17T00:25:05.284Z,98253.59
2023-01-17T00:27:37.135Z,98265.69
2023-01-17T00:30:11.532Z,98266.56
2023-01-17T00:32:43.387Z,98264.81
2023-01-17T00:35:16.003Z,98269.19
2023-01-17T00:37:47.924Z,98287.38
2023-01-17T00:40:19.793Z,98286.47
2023-01-17T00:42:51.643Z,98301.09
2023-01-17T00:45:42.188Z,98299.28
2023-01-17T00:48:32.736Z,98308.72
2023-01-17T00:51:23.689Z,98283.28
2023-01-17T00:54:14.198Z,98319.94
2023-01-17T00:57:05.118Z,98330.28
2023-01-17T00:59:56.337Z,98326.78
2023-01-17T01:02:47.302Z,98310.00
2023-01-17T01:05:38.387Z,98338.72
2023-01-17T01:08:46.515Z,98341.19
2023-01-17T01:11:39.801Z,98329.06
2023-01-17T01:14:30.580Z,98345.75
2023-01-17T01:17:21.111Z,98339.56
2023-01-17T01:20:11.493Z,98358.06
2023-01-17T01:23:01.850Z,98359.72
2023-01-17T01:25:52.208Z,98351.88
2023-01-17T01:28:42.727Z,98353.53
2023-01-17T01:31:34.656Z,98363.06
2023-01-17T01:34:06.675Z,98360.38
2023-01-17T01:36:38.678Z,98361.25
2023-01-17T01:39:10.773Z,98375.03
2023-01-17T01:41:42.770Z,98379.31
2023-01-17T01:44:43.711Z,98377.53
2023-01-17T01:47:19.768Z,98388.75
2023-01-17T01:49:52.532Z,98390.41
2023-01-17T01:52:30.258Z,98402.50
2023-01-17T01:55:16.293Z,98385.00
2023-01-17T01:57:54.804Z,98390.25
2023-01-17T02:00:33.697Z,98415.50
2023-01-17T02:03:13.261Z,98411.03
2023-01-17T02:05:45.476Z,98404.88
2023-01-17T02:08:22.609Z,98422.41
2023-01-17T02:10:56.516Z,98425.09
2023-01-17T02:13:29.203Z,98419.91
2023-01-17T02:16:31.068Z,98419.84
2023-01-17T02:19:53.906Z,98433.72
2023-01-17T02:23:07.463Z,98423.28
2023-01-17T02:26:13.333Z,98439.69
2023-01-17T02:29:19.464Z,98450.91
2023-01-17T02:31:54.495Z,98447.38
2023-01-17T02:34:44.805Z,98456.00
2023-01-17T02:37:34.921Z,98420.72
2023-01-17T02:40:26.526Z,98470.22
2023-01-17T02:43:10.793Z,98452.06
2023-01-17T02:45:43.102Z,98459.81
2023-01-17T02:48:22.002Z,98446.69
2023-01-17T02:51:05.819Z,98441.34
2023-01-17T02:53:59.713Z,98431.00
2023-01-17T02:56:59.528Z,98436.41
2023-01-17T03:00:03.923Z,98443.44
2023-01-17T03:02:50.740Z,98419.72
2023-01-17T03:05:41.592Z,98448.44
2023-01-17T03:08:15.824Z,98456.88
2023-01-17T03:10:47.960Z,98465.59
2023-01-17T03:13:19.950Z,98467.25
2023-01-17T03:15:52.014Z,98472.19
2023-01-17T03:18:24.389Z,98469.38
2023-01-17T03:20:56.352Z,98480.66
2023-01-17T03:23:28.255Z,98481.44
2023-01-17T03:26:00.420Z,98473.66
2023-01-17T03:28:32.425Z,98477.25
2023-01-17T03:31:04.822Z,98478.97
2023-01-17T03:33:36.955Z,98481.63
2023-01-17T03:36:09.309Z,98486.88
2023-01-17T03:38:41.414Z,98482.66
2023-01-17T03:41:13.369Z,98481.75
2023-01-17T03:43:45.294Z,98485.22
2023-01-17T03:46:28.938Z,98484.28
2023-01-17T03:49:00.929Z,98483.34
2023-01-17T03:51:32.924Z,98435.00
2023-01-17T03:54:05.095Z,98492.69
2023-01-17T03:56:37.105Z,98476.19
2023-01-17T03:59:10.957Z,98491.88
2023-01-17T04:01:44.951Z,98484.03
2023-01-17T04:04:17.047Z,98483.22
2023-01-17T04:06:48.982Z,98432.41
2023-01-17T04:09:21.054Z,98484.91
2023-01-17T04:11:53.359Z,98487.50
2023-01-17T04:14:25.245Z,98483.91
2023-01-17T04:16:57.618Z,98487.50
2023-01-17T04:19:31.773Z,98490.16
2023-01-17T04:22:04.296Z,98489.22
2023-01-17T04:24:36.451Z,98485.81
2023-01-17T04:27:09.150Z,98490.13
2023-01-17T04:29:41.216Z,98484.03
2023-01-17T04:32:13.145Z,98489.22
2023-01-17T04:34:45.072Z,98462.06
2023-01-17T04:37:17.003Z,98470.91
2023-01-17T04:39:48.949Z,98478.59
2023-01-17T04:42:21.032Z,98483.69
2023-01-17T04:44:52.986Z,98479.34
2023-01-17T04:47:24.963Z,98477.59
2023-01-17T04:49:56.959Z,98471.44
2023-01-17T04:52:29.103Z,98487.13
2023-01-17T04:55:00.981Z,98494.03
2023-01-17T04:57:32.928Z,98473.00
2023-01-17T05:00:05.886Z,98486.09
2023-01-17T05:02:37.841Z,98492.03
2023-01-17T05:05:10.649Z,98482.38
2023-01-17T05:07:42.655Z,98494.56
2023-01-17T05:10:14.607Z,98494.56
2023-01-17T05:12:58.243Z,98491.94
2023-01-17T05:15:31.089Z,98495.31
2023-01-17T05:18:07.271Z,98489.19
2023-01-17T05:20:39.229Z,98506.38
2023-01-17T05:23:11.508Z,98502.91
2023-01-17T05:25:44.498Z,98508.88
2023-01-17T05:28:16.709Z,98504.66
2023-01-17T05:30:48.646Z,98507.19
2023-01-17T05:33:20.719Z,98505.53
2023-01-17T05:35:53.002Z,98505.59
2023-01-17T05:38:25.092Z,98495.94
2023-01-17T05:41:01.255Z,98511.63
2023-01-17T05:43:33.256Z,98504.88
2023-01-17T05:46:05.564Z,98519.59
2023-01-17T05:48:37.637Z,98482.84
2023-01-17T05:51:09.703Z,98514.13
2023-01-17T05:53:41.651Z,98524.72
2023-01-17T05:56:13.671Z,98527.25
2023-01-17T05:58:45.670Z,98530.63
2023-01-17T06:01:17.864Z,98518.97
2023-01-17T06:03:49.849Z,98537.38
2023-01-17T06:06:22.369Z,98533.03
2023-01-17T06:08:54.338Z,98515.41
2023-01-17T06:11:26.707Z,98520.59
2023-01-17T06:13:58.651Z,98532.94
2023-01-17T06:16:30.567Z,98531.25
2023-01-17T06:19:02.788Z,98530.50
2023-01-17T06:21:34.766Z,98536.59
2023-01-17T06:24:07.175Z,98535.63
2023-01-17T06:26:39.176Z,98531.25
2023-01-17T06:29:12.697Z,98527.56
2023-01-17T06:31:44.852Z,98534.53
2023-01-17T06:34:17.078Z,98536.22
2023-01-17T06:36:49.086Z,98538.72
2023-01-17T06:39:21.183Z,98542.13
2023-01-17T06:41:53.263Z,98493.81
2023-01-17T06:44:26.331Z,98541.78
2023-01-17T06:46:58.270Z,98545.13
2023-01-17T06:49:30.454Z,98545.13
2023-01-17T06:52:02.365Z,98556.28
2023-01-17T06:54:34.362Z,98554.44
2023-01-17T06:57:06.325Z,98550.13
2023-01-17T06:59:38.493Z,98554.50
2023-01-17T07:02:11.862Z,98548.34
2023-01-17T07:04:43.823Z,98540.28
2023-01-17T07:07:15.806Z,98559.59
2023-01-17T07:09:47.786Z,98561.47
2023-01-17T07:12:19.699Z,98556.28
2023-01-17T07:14:51.607Z,98555.38
2023-01-17T07:17:23.505Z,98553.44
2023-01-17T07:19:55.446Z,98559.44
2023-01-17T07:22:27.450Z,98557.69
2023-01-17T07:24:59.692Z,98563.03
2023-01-17T07:27:33.571Z,98560.34
2023-01-17T07:30:06.429Z,98559.59
2023-01-17T07:32:38.833Z,98556.28
2023-01-17T07:35:10.765Z,98539.53
2023-01-17T07:37:51.319Z,98564.78
2023-01-17T07:40:23.571Z,98555.16
2023-01-17T07:43:01.744Z,98564.78
2023-01-17T07:45:33.705Z,98570.84
2023-01-17T07:48:05.783Z,98568.31
2023-01-17T07:50:38.014Z,98565.75
2023-01-17T07:53:10.991Z,98568.47
2023-01-17T07:55:42.909Z,98556.19
2023-01-17T07:58:15.441Z,98572.84
2023-01-17T08:00:47.719Z,98571.97
2023-01-17T08:03:19.756Z,98570.25
2023-01-17T08:05:57.673Z,98576.34
2023-01-17T08:08:29.966Z,98571.31
2023-01-17T08:11:02.000Z,98573.06
2023-01-17T08:13:33.933Z,98575.59
2023-01-17T08:16:06.656Z,98565.25
2023-01-17T08:18:39.164Z,98567.91
2023-01-17T08:21:16.893Z,98565.31
2023-01-17T08:23:51.106Z,98561.78
2023-01-17T08:26:23.205Z,98569.53
2023-01-17T08:28:59.002Z,98574.72
2023-01-17T08:31:35.230Z,98531.53
2023-01-17T08:34:07.321Z,98578.03
2023-01-17T08:36:39.354Z,98588.38
2023-01-17T08:39:14.551Z,98591.88
2023-01-17T08:41:46.815Z,98596.31
2023-01-17T08:44:20.275Z,98591.13
2023-01-17T08:46:52.394Z,98598.09
2023-01-17T08:49:24.784Z,98585.94
2023-01-17T08:51:56.824Z,98592.25
2023-01-17T08:54:28.990Z,98595.84
2023-01-17T08:57:03.356Z,98573.03
2023-01-17T08:59:35.301Z,98570.66
2023-01-17T09:02:17.571Z,98587.59
2023-01-17T09:04:50.817Z,98587.81
2023-01-17T09:07:24.387Z,98589.56
2023-01-17T09:09:59.149Z,98587.94
2023-01-17T09:12:36.809Z,98595.94
2023-01-17T09:15:09.575Z,98570.50
2023-01-17T09:17:41.512Z,98593.34
2023-01-17T09:20:14.060Z,98598.53
2023-01-17T09:22:46.248Z,98600.31
2023-01-17T09:25:18.369Z,98598.66
2023-01-17T09:27:50.399Z,98592.75
2023-01-17T09:30:22.553Z,98592.97
2023-01-17T09:32:55.477Z,98601.75
2023-01-17T09:35:27.428Z,98607.91
2023-01-17T09:37:59.447Z,98602.88
2023-01-17T09:40:31.502Z,98599.44
2023-01-17T09:43:14.961Z,98595.19
2023-01-17T09:45:46.975Z,98599.84
2023-01-17T09:48:43.771Z,98601.94
2023-01-17T09:51:24.279Z,98604.47
2023-01-17T09:53:56.564Z,98608.09
2023-01-17T09:56:46.711Z,98603.75
2023-01-17T09:59:35.337Z,98602.81
2023-01-17T10:03:09.563Z,98610.63
2023-01-17T10:05:58.403Z,98615.22
2023-01-17T10:09:12.628Z,98594.44
2023-01-17T10:11:53.627Z,98611.38
2023-01-17T10:15:09.206Z,98605.44
2023-01-17T10:18:04.339Z,98613.47
2023-01-17T10:21:10.993Z,98609.28
2023-01-17T10:24:33.711Z,98615.59
2023-01-17T10:27:40.549Z,98605.47
2023-01-17T10:30:38.107Z,98611.41
2023-01-17T10:33:19.655Z,98605.16
2023-01-17T10:36:20.748Z,98599.19
2023-01-17T10:38:59.223Z,98603.81
2023-01-17T10:41:45.215Z,98604.56
2023-01-17T10:44:53.199Z,98613.69
2023-01-17T10:47:29.219Z,98603.81
2023-01-17T10:50:05.377Z,98606.53
2023-01-17T10:53:09.011Z,98622.53
2023-01-17T10:55:53.450Z,98622.44
2023-01-17T10:58:25.929Z,98618.06
2023-01-17T11:01:03.054Z,98617.50
2023-01-17T11:03:35.427Z,98595.25
2023-01-17T11:06:27.690Z,98584.19
2023-01-17T11:09:05.318Z,98595.78
2023-01-17T11:11:49.332Z,98603.75
2023-01-17T11:14:25.846Z,98590.69
2023-01-17T11:17:06.740Z,98599.47
2023-01-17T11:19:39.496Z,98589.97
2023-01-17T11:22:15.988Z,98576.88
2023-01-17T11:24:53.785Z,98575.09
2023-01-17T11:27:36.417Z,98587.31
2023-01-17T11:30:20.416Z,98580.31
2023-01-17T11:33:09.321Z,98561.91
2023-01-17T11:35:47.283Z,98576.75
2023-01-17T11:38:22.407Z,98542.66
2023-01-17T11:41:14.637Z,98575.78
2023-01-17T11:43:56.788Z,98572.34
2023-01-17T11:46:29.789Z,98574.97
2023-01-17T11:49:02.020Z,98566.28
2023-01-17T11:51:41.751Z,98562.81
2023-01-17T11:54:39.418Z,98563.78
2023-01-17T11:57:29.713Z,98543.66
2023-01-17T12:00:22.411Z,98562.00
2023-01-17T12:03:45.721Z,98557.56
2023-01-17T12:06:58.351Z,98560.22
2023-01-17T12:09:45.545Z,98559.38
2023-01-17T12:13:23.013Z,98554.16
2023-01-17T12:16:36.996Z,98561.16
2023-01-17T12:19:41.338Z,98559.38
2023-01-17T12:22:53.344Z,98555.03
2023-01-17T12:25:48.566Z,98559.38
2023-01-17T12:28:48.167Z,98552.41
2023-01-17T12:31:33.438Z,98550.63
2023-01-17T12:34:32.117Z,98548.03
2023-01-17T12:37:44.933Z,98547.16
2023-01-17T12:40:33.172Z,98548.88
2023-01-17T12:43:32.963Z,98545.38
2023-01-17T12:46:25.864Z,98547.13
2023-01-17T12:49:29.984Z,98541.00
2023-01-17T12:52:31.940Z,98540.16
2023-01-17T12:55:12.143Z,98524.44
2023-01-17T12:57:56.319Z,98533.16
2023-01-17T13:00:31.313Z,98539.28
2023-01-17T13:03:27.285Z,98539.22
2023-01-17T13:06:03.336Z,98498.94
2023-01-17T13:08:46.474Z,98549.66
2023-01-17T13:11:30.231Z,98542.78
2023-01-17T13:14:02.459Z,98547.13
2023-01-17T13:16:50.230Z,98534.91
2023-01-17T13:19:37.232Z,98539.22
2023-01-17T13:22:18.351Z,98528.69
2023-01-17T13:25:44.540Z,98526.00
2023-01-17T13:28:30.215Z,98532.94
2023-01-17T13:31:30.826Z,98531.41
2023-01-17T13:34:40.449Z,98534.88
2023-01-17T13:38:17.285Z,98524.44
2023-01-17T13:41:03.837Z,98530.53
2023-01-17T13:44:05.257Z,98529.69
2023-01-17T13:47:06.627Z,98540.13
2023-01-17T13:49:42.400Z,98527.81
2023-01-17T13:52:21.005Z,98525.09
2023-01-17T13:55:02.994Z,98531.97
2023-01-17T13:57:43.342Z,98540.56
2023-01-17T14:00:21.565Z,98536.44
2023-01-17T14:02:56.603Z,98536.66
2023-01-17T14:05:31.797Z,98535.81
2023-01-17T14:08:14.934Z,98547.13
2023-01-17T14:11:03.763Z,98554.03
2023-01-17T14:13:40.337Z,98542.59
2023-01-17T14:16:21.778Z,98554.66
2023-01-17T14:18:55.702Z,98560.63
2023-01-17T14:21:35.548Z,98563.16
2023-01-17T14:24:10.557Z,98560.47
2023-01-17T14:26:56.917Z,98558.69
2023-01-17T14:30:16.492Z,98555.97
2023-01-17T14:33:04.693Z,98562.06
2023-01-17T14:35:51.537Z,98567.19
2023-01-17T14:38:26.804Z,98557.84
2023-01-17T14:40:58.842Z,98563.69
2023-01-17T14:43:37.821Z,98567.91
2023-01-17T14:46:28.573Z,98566.16
2023-01-17T14:49:06.113Z,98538.19
2023-01-17T14:51:39.043Z,98566.13
2023-01-17T14:54:22.120Z,98561.75
2023-01-17T14:57:31.696Z,98571.31
2023-01-17T15:00:21.273Z,98569.66
2023-01-17T15:02:54.207Z,98563.59
2023-01-17T15:05:29.690Z,98551.31
2023-01-17T15:08:02.106Z,98582.69
2023-01-17T15:10:34.543Z,98579.09
2023-01-17T15:13:10.548Z,98586.03
2023-01-17T15:15:42.772Z,98587.69
2023-01-17T15:18:14.698Z,98587.59
2023-01-17T15:21:01.492Z,98559.41
2023-01-17T15:23:43.216Z,98596.09
2023-01-17T15:26:19.486Z,98601.28
2023-01-17T15:28:54.139Z,98604.78
2023-01-17T15:32:05.245Z,98615.06
2023-01-17T15:34:46.707Z,98606.38
2023-01-17T15:37:41.871Z,98611.59
2023-01-17T15:40:26.115Z,98607.25
2023-01-17T15:43:01.452Z,98602.94
2023-01-17T15:45:36.095Z,98602.06
2023-01-17T15:48:32.698Z,98610.72
2023-01-17T15:51:04.933Z,98609.78
2023-01-17T15:53:41.654Z,98606.34
2023-01-17T15:56:42.063Z,98607.06
2023-01-17T15:59:43.912Z,98599.13
2023-01-17T16:02:57.914Z,98609.50
2023-01-17T16:05:34.699Z,98605.13
2023-01-17T16:08:06.577Z,98606.78
2023-01-17T16:10:39.505Z,98613.66
2023-01-17T16:13:13.642Z,98615.28
2023-01-17T16:15:45.829Z,98616.06
2023-01-17T16:18:25.896Z,98616.84
2023-01-17T16:21:31.461Z,98609.78
2023-01-17T16:24:03.644Z,98615.75
2023-01-17T16:26:35.661Z,98621.50
2023-01-17T16:29:08.246Z,98621.78
2023-01-17T16:31:40.212Z,98621.53
2023-01-17T16:34:15.173Z,98631.06
2023-01-17T16:36:53.895Z,98620.53
2023-01-17T16:39:25.892Z,98625.72
2023-01-17T16:42:04.886Z,98638.66
2023-01-17T16:44:37.654Z,98638.63
2023-01-17T16:47:09.678Z,98635.97
2023-01-17T16:49:41.598Z,98616.53
2023-01-17T16:52:13.571Z,98646.22
2023-01-17T16:54:45.569Z,98631.31
2023-01-17T16:57:17.505Z,98647.84
2023-01-17T16:59:50.893Z,98651.25
2023-01-17T17:02:23.301Z,98651.16
2023-01-17T17:04:55.372Z,98654.56
2023-01-17T17:07:27.361Z,98647.56
2023-01-17T17:09:59.654Z,98657.97
2023-01-17T17:12:32.883Z,98650.94
2023-01-17T17:15:05.593Z,98660.41
2023-01-17T17:17:43.323Z,98635.00
2023-01-17T17:20:16.274Z,98662.09
2023-01-17T17:22:52.086Z,98661.06
2023-01-17T17:25:24.105Z,98674.16
2023-01-17T17:27:56.003Z,98674.09
2023-01-17T17:30:28.079Z,98674.97
2023-01-17T17:33:00.197Z,98667.84
2023-01-17T17:35:35.032Z,98671.28
2023-01-17T17:38:07.046Z,98681.69
2023-01-17T17:40:39.030Z,98683.34
2023-01-17T17:43:11.017Z,98680.56
2023-01-17T17:45:43.091Z,98687.47
2023-01-17T17:48:15.080Z,98697.94
2023-01-17T17:53:27.926Z,98686.47
2023-01-17T17:56:05.702Z,98653.00
2023-01-17T17:58:37.666Z,98706.34
2023-01-17T18:01:09.676Z,98687.97
2023-01-17T18:03:41.705Z,98708.94
2023-01-17T18:06:13.743Z,98702.56
2023-01-17T18:08:46.094Z,98719.16
2023-01-17T18:11:23.059Z,98721.66
2023-01-17T18:13:58.398Z,98718.09
2023-01-17T18:16:37.448Z,98718.75
2023-01-17T18:19:21.691Z,98710.75
2023-01-17T18:21:54.468Z,98723.88
2023-01-17T18:24:27.574Z,98728.09
2023-01-17T18:26:59.674Z,98741.09
2023-01-17T18:29:31.850Z,98739.31
2023-01-17T18:32:03.891Z,98735.78
2023-01-17T18:34:39.299Z,98740.16
2023-01-17T18:37:11.226Z,98745.44
2023-01-17T18:39:43.885Z,98738.25
2023-01-17T18:42:15.820Z,98753.91
2023-01-17T18:44:47.998Z,98761.63
2023-01-17T18:47:20.137Z,98763.25
2023-01-17T18:49:53.728Z,98763.25
2023-01-17T18:52:25.782Z,98766.75
2023-01-17T18:54:57.723Z,98768.47
2023-01-17T18:57:29.737Z,98770.13
2023-01-17T19:00:02.316Z,98784.00
2023-01-17T19:02:34.304Z,98774.50
2023-01-17T19:05:09.548Z,98776.19
2023-01-17T19:07:41.479Z,98783.97
2023-01-17T19:10:13.486Z,98790.00
2023-01-17T19:12:45.573Z,98801.22
2023-01-17T19:15:17.529Z,98789.75
2023-01-17T19:17:49.623Z,98792.41
2023-01-17T19:20:21.620Z,98779.94
2023-01-17T19:22:53.602Z,98800.91
2023-01-17T19:25:25.724Z,98811.31
2023-01-17T19:27:58.525Z,98800.72
2023-01-17T19:30:30.662Z,98806.97
2023-01-17T19:33:02.597Z,98811.22
2023-01-17T19:35:37.486Z,98816.34
2023-01-17T19:38:09.492Z,98808.28
2023-01-17T19:40:41.412Z,98819.69
2023-01-17T19:43:13.405Z,98825.66
2023-01-17T19:45:55.813Z,98825.50
2023-01-17T19:48:29.061Z,98818.44
2023-01-17T19:51:07.769Z,98827.19
2023-01-17T19:53:41.382Z,98827.25
2023-01-17T19:56:26.112Z,98811.25
2023-01-17T19:59:01.311Z,98822.75
2023-01-17T20:01:35.023Z,98812.22
2023-01-17T20:04:07.175Z,98818.28
2023-01-17T20:06:39.131Z,98829.72
2023-01-17T20:09:12.458Z,98824.53
2023-01-17T20:11:45.553Z,98823.56
2023-01-17T20:14:17.629Z,98826.06
2023-01-17T20:16:49.832Z,98835.63
2023-01-17T20:19:22.182Z,98835.56
2023-01-17T20:21:54.182Z,98841.53
2023-01-17T20:24:26.238Z,98840.63
2023-01-17T20:26:58.355Z,98843.25
2023-01-17T20:29:30.407Z,98841.50
2023-01-17T20:32:02.432Z,98840.63
2023-01-17T20:34:34.414Z,98832.78
2023-01-17T20:37:08.631Z,98820.34
2023-01-17T20:39:41.158Z,98837.72
2023-01-17T20:42:13.117Z,98848.06
2023-01-17T20:44:45.589Z,98849.88
2023-01-17T20:47:18.208Z,98846.38
2023-01-17T20:49:50.239Z,98846.44
2023-01-17T20:52:22.178Z,98846.34
2023-01-17T20:54:54.335Z,98846.31
2023-01-17T20:57:26.265Z,98838.44
2023-01-17T20:59:58.330Z,98849.78
2023-01-17T21:02:30.377Z,98852.41
2023-01-17T21:05:03.753Z,98848.06
2023-01-17T21:07:35.690Z,98848.91
2023-01-17T21:10:08.255Z,98841.91
2023-01-17T21:12:40.847Z,98853.16
2023-01-17T21:15:17.651Z,98853.94
2023-01-17T21:17:49.785Z,98853.88
2023-01-17T21:20:21.700Z,98850.44
2023-01-17T21:22:53.712Z,98859.06
2023-01-17T21:25:25.660Z,98859.88
2023-01-17T21:27:57.923Z,98856.31
2023-01-17T21:30:30.211Z,98858.00
2023-01-17T21:33:02.265Z,98859.69
2023-01-17T21:35:34.219Z,98829.78
2023-01-17T21:38:06.178Z,98866.59
2023-01-17T21:40:38.333Z,98871.81
2023-01-17T21:43:11.158Z,98870.91
2023-01-17T21:45:43.287Z,98850.78
2023-01-17T21:48:15.338Z,98869.09
2023-01-17T21:50:52.078Z,98875.09
2023-01-17T21:53:24.161Z,98878.53
2023-01-17T21:56:24.040Z,98859.97
2023-01-17T21:58:57.753Z,98871.44
2023-01-17T22:01:33.093Z,98862.63
2023-01-17T22:04:05.458Z,98867.00
2023-01-17T22:06:39.406Z,98875.66
2023-01-17T22:09:11.397Z,98873.88
2023-01-17T22:11:43.399Z,98871.28
2023-01-17T22:14:15.826Z,98872.13
2023-01-17T22:16:48.677Z,98871.28
2023-01-17T22:19:20.934Z,98879.88
2023-01-17T22:21:54.403Z,98873.75
2023-01-17T22:24:26.308Z,98874.59
2023-01-17T22:26:58.352Z,98874.53
2023-01-17T22:29:32.437Z,98875.38
2023-01-17T22:32:04.916Z,98877.84
2023-01-17T22:34:36.844Z,98880.38
2023-01-17T22:37:10.154Z,98874.28
2023-01-17T22:39:42.221Z,98867.06
2023-01-17T22:42:15.150Z,98870.63
2023-01-17T22:44:47.913Z,98885.53
2023-01-17T22:47:19.781Z,98886.28
2023-01-17T22:49:51.748Z,98879.28
2023-01-17T22:52:23.671Z,98870.38
2023-01-17T22:54:55.771Z,98835.22
2023-01-17T22:57:27.816Z,98884.41
2023-01-17T23:00:00.043Z,98880.81
2023-01-17T23:02:31.996Z,98878.25
2023-01-17T23:05:04.096Z,98877.28
2023-01-17T23:07:43.585Z,98881.56
2023-01-17T23:10:36.114Z,98893.66
2023-01-17T23:13:11.186Z,98885.84
2023-01-17T23:16:01.569Z,98894.50
2023-01-17T23:18:52.001Z,98891.75
2023-01-17T23:21:43.930Z,98894.28
2023-01-17T23:24:15.853Z,98894.28
2023-01-17T23:27:07.746Z,98890.88
2023-01-17T23:29:39.691Z,98892.53
2023-01-17T23:32:11.730Z,98892.53
2023-01-17T23:34:43.685Z,98897.72
2023-01-17T23:37:15.857Z,98886.47
2023-01-17T23:39:47.851Z,98893.38
2023-01-17T23:42:38.118Z,98895.06
2023-01-17T23:45:10.541Z,98869.56
2023-01-17T23:47:45.105Z,98892.44
2023-01-17T23:50:17.237Z,98892.34
2023-01-17T23:52:49.183Z,98889.78
2023-01-17T23:55:21.263Z,98900.13
2023-01-17T23:57:54.302Z,98893.22
